Coral Electra — PCAG — position and weather

sailwx.info

Track history (hours):
 
Tides and Currents Weather Stations Pressure Air Temp Water Temp Dewpoint Dewpoint Depression Visibility Wind Speed Wind Dir Waves Ship Positions

Coral Electra

Last reported at 2014-Oct-31 12:30 UTC. Time now 2014-Oct-31 13:01 UTC.
Position N 53°32' E 006°38'.

Length 14 m; draft 2 m.

Type: Port tender. MMSI: 244690019.

Date/timePositionNaut miles runAvg speedWind from/ knotsBaromVisibWave heightAir tempDewpointWater temp
2014-Oct-31 12:30N 53°32' E 006°38'9 9.4
2014-Oct-31 11:33N 53°27' E 006°50'0 0.4
2014-Oct-31 10:33N 53°27' E 006°50'0 0.0
2014-Oct-31 09:33N 53°27' E 006°50'0 0.0
2014-Oct-31 08:33N 53°27' E 006°50'0 0.0
2014-Oct-31 07:31N 53°27' E 006°50'0 0.3
2014-Oct-31 06:33N 53°27' E 006°49'0 0.1
2014-Oct-31 04:33N 53°27' E 006°50'0 0.0
2014-Oct-31 03:33N 53°27' E 006°50'0 0.0
2014-Oct-31 02:31N 53°27' E 006°50'0 0.0
2014-Oct-31 01:31N 53°27' E 006°50'0 0.0
2014-Oct-31 00:31N 53°27' E 006°50'0 0.0
2014-Oct-30 23:31N 53°27' E 006°50'0 0.0
2014-Oct-30 22:33N 53°27' E 006°50'0 0.0
2014-Oct-30 21:33N 53°27' E 006°50'0 0.4
2014-Oct-30 20:29N 53°26' E 006°49'0 0.4
2014-Oct-30 19:30N 53°27' E 006°50'0 0.0
2014-Oct-30 18:28N 53°27' E 006°50'0 0.0
2014-Oct-30 17:31N 53°27' E 006°50'3 3.4
2014-Oct-30 16:33N 53°30' E 006°48'3 2.9
2014-Oct-30 15:33N 53°27' E 006°50'3 2.9
2014-Oct-30 14:33N 53°29' E 006°46'3 2.7
2014-Oct-30 13:29N 53°27' E 006°50'0 0.0
2014-Oct-30 12:32N 53°27' E 006°50'0 0.0
2014-Oct-30 11:32N 53°27' E 006°50'0 0.0
2014-Oct-30 10:32N 53°27' E 006°50'0 0.0
2014-Oct-30 09:32N 53°27' E 006°50'0 0.0
2014-Oct-30 08:32N 53°27' E 006°50'0 0.0
2014-Oct-30 07:23N 53°27' E 006°50'0 0.3
2014-Oct-30 06:31N 53°27' E 006°49'7 5.8
2014-Oct-30 05:17N 53°33' E 006°43'7 9.4
2014-Oct-30 04:31N 53°27' E 006°50'0 0.0
2014-Oct-30 03:31N 53°27' E 006°50'0 0.0
2014-Oct-30 02:31N 53°27' E 006°50'0 0.0
2014-Oct-30 01:31N 53°27' E 006°50'0 0.0
2014-Oct-30 00:31N 53°27' E 006°50'0 0.0
2014-Oct-29 23:31N 53°27' E 006°50'0 0.0
2014-Oct-29 22:33N 53°27' E 006°50'0 0.0
2014-Oct-29 21:30N 53°27' E 006°50'0 0.0
2014-Oct-29 20:33N 53°27' E 006°50'0 0.0
2014-Oct-29 19:33N 53°27' E 006°50'0 0.0
2014-Oct-29 18:33N 53°27' E 006°50'3 3.3
2014-Oct-29 17:33N 53°30' E 006°48'3 3.3
2014-Oct-29 16:33N 53°27' E 006°50'0 0.0
2014-Oct-29 15:31N 53°27' E 006°50'4 4.0
2014-Oct-29 14:31N 53°29' E 006°44'4 4.0
2014-Oct-29 13:33N 53°27' E 006°50'1 0.9
2014-Oct-29 12:31N 53°27' E 006°50'3 1.0
2014-Oct-29 09:33N 53°29' E 006°46'3 2.8
2014-Oct-29 08:32N 53°27' E 006°50'0 0.0
2014-Oct-29 07:32N 53°27' E 006°50'0 0.0
2014-Oct-29 06:33N 53°27' E 006°50'7 5.9
2014-Oct-29 05:17N 53°34' E 006°45'7 9.4
2014-Oct-29 04:30N 53°27' E 006°50'0 0.0
2014-Oct-29 03:33N 53°27' E 006°50'0 0.0
2014-Oct-29 02:33N 53°27' E 006°50'0 0.0
2014-Oct-29 01:33N 53°27' E 006°50'7 0.9
2014-Oct-28 17:17N 53°34' E 006°45'710.2
2014-Oct-28 16:33N 53°27' E 006°50'0 0.0
2014-Oct-28 15:33N 53°27' E 006°50'0 0.0
2014-Oct-28 14:33N 53°27' E 006°50'0 0.0
2014-Oct-28 12:32N 53°27' E 006°50'0 0.0
2014-Oct-28 11:32N 53°27' E 006°50'0 0.0
2014-Oct-28 10:32N 53°27' E 006°50'0 0.0
2014-Oct-28 09:26N 53°27' E 006°50'0 0.0
2014-Oct-28 08:32N 53°27' E 006°50'0 0.0
2014-Oct-28 07:32N 53°27' E 006°50'0 0.0
2014-Oct-28 06:32N 53°27' E 006°50'0 0.0
2014-Oct-28 05:32N 53°27' E 006°50'0 0.0
2014-Oct-28 04:32N 53°27' E 006°50'0 0.0
2014-Oct-28 03:32N 53°27' E 006°50'0 0.0
2014-Oct-28 02:32N 53°27' E 006°50'0 0.0
2014-Oct-28 01:29N 53°27' E 006°50'0 0.0
2014-Oct-28 00:32N 53°27' E 006°50'0 0.0
2014-Oct-27 23:32N 53°27' E 006°50'0 0.0
2014-Oct-27 22:29N 53°27' E 006°50'0 0.0
2014-Oct-27 21:32N 53°27' E 006°50'0 0.0
2014-Oct-27 20:31N 53°27' E 006°50'0 0.0
2014-Oct-27 19:28N 53°27' E 006°50'0 0.0
2014-Oct-27 18:31N 53°27' E 006°50'0 0.0
2014-Oct-27 17:31N 53°27' E 006°50'0 0.0
2014-Oct-27 16:31N 53°27' E 006°50'0 0.0
2014-Oct-27 15:31N 53°27' E 006°50'0 0.0
2014-Oct-27 14:31N 53°27' E 006°50'0 0.0
2014-Oct-27 13:31N 53°27' E 006°50'8 7.1
2014-Oct-27 12:27N 53°32' E 006°40'8 8.2
2014-Oct-27 11:31N 53°27' E 006°50'0 0.0
2014-Oct-27 10:28N 53°27' E 006°50'0 0.0
2014-Oct-27 09:31N 53°27' E 006°50'0 0.0
2014-Oct-27 08:28N 53°27' E 006°50'0 0.0
2014-Oct-27 07:31N 53°27' E 006°50'9 7.3
2014-Oct-27 06:20N 53°33' E 006°40'910.5
2014-Oct-27 05:31N 53°27' E 006°50'0 0.0
2014-Oct-27 04:31N 53°27' E 006°50'0 0.0
2014-Oct-27 03:31N 53°27' E 006°50'0 0.0
2014-Oct-27 02:31N 53°27' E 006°50'0 0.0
2014-Oct-27 01:28N 53°27' E 006°50'0 0.0
2014-Oct-27 00:31N 53°27' E 006°50'0 0.0
2014-Oct-26 23:28N 53°27' E 006°50'0 0.0
2014-Oct-26 22:31N 53°27' E 006°50'0 0.0
2014-Oct-26 21:31N 53°27' E 006°50'0 0.0
2014-Oct-26 20:28N 53°27' E 006°50'0 0.0
2014-Oct-26 19:31N 53°27' E 006°50'0 0.0
2014-Oct-26 18:31N 53°27' E 006°50'0 0.0
2014-Oct-26 17:31N 53°27' E 006°50'0 0.0
2014-Oct-26 16:31N 53°27' E 006°50'0 0.0
2014-Oct-26 15:31N 53°27' E 006°50'0 0.0
2014-Oct-26 14:31N 53°27' E 006°50'0 0.2
2014-Oct-26 13:33N 53°27' E 006°50'9 4.3
2014-Oct-26 11:30N 53°32' E 006°38'0 0.0
2014-Oct-26 10:33N 53°32' E 006°38'1 0.9
2014-Oct-26 09:16N 53°32' E 006°40'7 9.5
2014-Oct-26 08:33N 53°28' E 006°49'1 1.4
2014-Oct-26 07:32N 53°27' E 006°50'0 0.0
2014-Oct-26 06:32N 53°27' E 006°50'0 0.0
2014-Oct-26 05:29N 53°27' E 006°50'0 0.0
2014-Oct-26 04:32N 53°27' E 006°50'0 0.0
2014-Oct-26 03:32N 53°27' E 006°50'0 0.0
2014-Oct-26 02:32N 53°27' E 006°50'0 0.0
2014-Oct-26 01:32N 53°27' E 006°50'0 0.0
2014-Oct-26 00:32N 53°27' E 006°50'0 0.0
2014-Oct-25 23:32N 53°27' E 006°50'0 0.0
2014-Oct-25 22:32N 53°27' E 006°50'0 0.0
2014-Oct-25 21:32N 53°27' E 006°50'0 0.0
2014-Oct-25 20:32N 53°27' E 006°50'0 0.0
2014-Oct-25 19:32N 53°27' E 006°50'0 0.0
2014-Oct-25 18:32N 53°27' E 006°50'0 0.0
2014-Oct-25 17:32N 53°27' E 006°50'2 1.5
2014-Oct-25 16:32N 53°28' E 006°50'3 3.4
2014-Oct-25 15:33N 53°31' E 006°47'5 4.5
2014-Oct-25 14:32N 53°27' E 006°50'0 0.0
2014-Oct-25 13:32N 53°27' E 006°50'0 0.0
2014-Oct-25 12:32N 53°27' E 006°50'0 0.1
2014-Oct-25 11:31N 53°27' E 006°49'1 1.3
2014-Oct-25 10:33N 53°28' E 006°49'7 6.7
2014-Oct-25 09:33N 53°32' E 006°40'8 7.5
2014-Oct-25 08:32N 53°27' E 006°50'0 0.0
2014-Oct-25 07:32N 53°27' E 006°50'0 0.0
2014-Oct-25 06:32N 53°27' E 006°50'0 0.0
2014-Oct-25 05:32N 53°27' E 006°50'0 0.0
2014-Oct-25 04:32N 53°27' E 006°50'0 0.0
2014-Oct-25 03:32N 53°27' E 006°50'0 0.0
2014-Oct-25 02:32N 53°27' E 006°50'0 0.0
2014-Oct-25 01:32N 53°27' E 006°50'0 0.0
2014-Oct-25 00:32N 53°27' E 006°50'0 0.0
2014-Oct-24 23:23N 53°27' E 006°50'0 0.0
2014-Oct-24 22:28N 53°27' E 006°50'0 0.0
2014-Oct-24 21:19N 53°27' E 006°50'0 0.0
2014-Oct-24 20:31N 53°27' E 006°50'0 0.0
2014-Oct-24 19:31N 53°27' E 006°50'0 0.0
2014-Oct-24 18:31N 53°27' E 006°50'0 0.0
2014-Oct-24 17:31N 53°27' E 006°50'0 0.0
2014-Oct-24 16:31N 53°27' E 006°50'0 0.0
2014-Oct-24 15:31N 53°27' E 006°50'8 6.9
2014-Oct-24 14:19N 53°33' E 006°40'810.7
2014-Oct-24 13:33N 53°27' E 006°50'0 0.0
2014-Oct-24 12:33N 53°27' E 006°50'0 0.1
2014-Oct-24 11:33N 53°27' E 006°49'9 2.0
2014-Oct-24 07:14N 53°33' E 006°39'912.6
2014-Oct-24 06:33N 53°27' E 006°50'0 0.5
2014-Oct-24 05:31N 53°27' E 006°50'0 0.0
2014-Oct-24 04:31N 53°27' E 006°50'0 0.0
2014-Oct-24 03:31N 53°27' E 006°50'0 0.0
2014-Oct-24 02:31N 53°27' E 006°50'0 0.0
2014-Oct-24 01:31N 53°27' E 006°50'0 0.0
2014-Oct-24 00:31N 53°27' E 006°50'0 0.0
2014-Oct-23 23:31N 53°27' E 006°50'0 0.0
2014-Oct-23 22:31N 53°27' E 006°50'0 0.0
2014-Oct-23 21:28N 53°27' E 006°50'0 0.0
2014-Oct-23 20:28N 53°27' E 006°50'0 0.0
2014-Oct-23 19:25N 53°27' E 006°50'0 0.0
2014-Oct-23 18:31N 53°27' E 006°50'0 0.0
2014-Oct-23 17:31N 53°27' E 006°50'0 0.0
2014-Oct-23 16:31N 53°27' E 006°50'4 2.0
2014-Oct-23 14:33N 53°29' E 006°44'4 3.9
2014-Oct-23 13:33N 53°27' E 006°50'0 0.0
2014-Oct-23 12:33N 53°27' E 006°50'0 0.0
2014-Oct-23 11:33N 53°27' E 006°50'0 0.0
2014-Oct-23 10:33N 53°27' E 006°50'0 0.0
2014-Oct-23 09:33N 53°27' E 006°50'0 0.0
2014-Oct-23 08:33N 53°27' E 006°50'0 0.0
2014-Oct-23 07:33N 53°27' E 006°50'0 0.0
2014-Oct-23 05:33N 53°27' E 006°50'0 0.1
2014-Oct-23 04:31N 53°27' E 006°50'0 0.0
2014-Oct-23 03:28N 53°27' E 006°50'0 0.0
2014-Oct-23 02:31N 53°27' E 006°50'0 0.0
2014-Oct-23 01:31N 53°27' E 006°50'0 0.0
2014-Oct-23 00:31N 53°27' E 006°50'0 0.0
2014-Oct-22 23:31N 53°27' E 006°50'0 0.0
2014-Oct-22 22:31N 53°27' E 006°50'0 0.0
2014-Oct-22 21:32N 53°27' E 006°50'0 0.0
2014-Oct-22 20:32N 53°27' E 006°50'0 0.0
2014-Oct-22 19:32N 53°27' E 006°50'0 0.0
2014-Oct-22 18:32N 53°27' E 006°50'0 0.0
2014-Oct-22 17:32N 53°27' E 006°50'0 0.0
2014-Oct-22 16:32N 53°27' E 006°50'9 7.5
2014-Oct-22 15:21N 53°33' E 006°39'810.2
2014-Oct-22 14:32N 53°28' E 006°50'1 1.1
2014-Oct-22 13:31N 53°27' E 006°50'0 0.0
2014-Oct-22 12:22N 53°27' E 006°50'0 0.0
2014-Oct-22 11:28N 53°27' E 006°50'0 0.0
2014-Oct-22 10:25N 53°27' E 006°50'5 2.8
2014-Oct-22 08:31N 53°30' E 006°42'5 4.5
2014-Oct-22 07:23N 53°27' E 006°49'7 0.6
2014-Oct-21 18:25N 53°34' E 006°45'6 2.1
2014-Oct-21 15:33N 53°28' E 006°49'2 1.5
2014-Oct-21 14:33N 53°27' E 006°50'0 0.0
2014-Oct-21 13:33N 53°27' E 006°50'0 0.0
2014-Oct-21 12:33N 53°27' E 006°50'  
Track history (hours):
 
Tides and Currents Weather Stations Pressure Air Temp Water Temp Dewpoint Dewpoint Depression Visibility Wind Speed Wind Dir Waves Ship Positions

Coral Electra

Last reported at 2014-Oct-31 12:30 UTC. Time now 2014-Oct-31 13:01 UTC.
Position N 53°32' E 006°38'.

Length 14 m; draft 2 m.

Type: Port tender. MMSI: 244690019.

Date/timePositionNaut miles runAvg speedWind from/ knotsBaromVisibWave heightAir tempDewpointWater temp
2014-Oct-31 12:30N 53°32' E 006°38'9 9.4
2014-Oct-31 11:33N 53°27' E 006°50'0 0.4
2014-Oct-31 10:33N 53°27' E 006°50'0 0.0
2014-Oct-31 09:33N 53°27' E 006°50'0 0.0
2014-Oct-31 08:33N 53°27' E 006°50'0 0.0
2014-Oct-31 07:31N 53°27' E 006°50'0 0.3
2014-Oct-31 06:33N 53°27' E 006°49'0 0.1
2014-Oct-31 04:33N 53°27' E 006°50'0 0.0
2014-Oct-31 03:33N 53°27' E 006°50'0 0.0
2014-Oct-31 02:31N 53°27' E 006°50'0 0.0
2014-Oct-31 01:31N 53°27' E 006°50'0 0.0
2014-Oct-31 00:31N 53°27' E 006°50'0 0.0
2014-Oct-30 23:31N 53°27' E 006°50'0 0.0
2014-Oct-30 22:33N 53°27' E 006°50'0 0.0
2014-Oct-30 21:33N 53°27' E 006°50'0 0.4
2014-Oct-30 20:29N 53°26' E 006°49'0 0.4
2014-Oct-30 19:30N 53°27' E 006°50'0 0.0
2014-Oct-30 18:28N 53°27' E 006°50'0 0.0
2014-Oct-30 17:31N 53°27' E 006°50'3 3.4
2014-Oct-30 16:33N 53°30' E 006°48'3 2.9
2014-Oct-30 15:33N 53°27' E 006°50'3 2.9
2014-Oct-30 14:33N 53°29' E 006°46'3 2.7
2014-Oct-30 13:29N 53°27' E 006°50'0 0.0
2014-Oct-30 12:32N 53°27' E 006°50'0 0.0
2014-Oct-30 11:32N 53°27' E 006°50'0 0.0
2014-Oct-30 10:32N 53°27' E 006°50'0 0.0
2014-Oct-30 09:32N 53°27' E 006°50'0 0.0
2014-Oct-30 08:32N 53°27' E 006°50'0 0.0
2014-Oct-30 07:23N 53°27' E 006°50'0 0.3
2014-Oct-30 06:31N 53°27' E 006°49'7 5.8
2014-Oct-30 05:17N 53°33' E 006°43'7 9.4
2014-Oct-30 04:31N 53°27' E 006°50'0 0.0
2014-Oct-30 03:31N 53°27' E 006°50'0 0.0
2014-Oct-30 02:31N 53°27' E 006°50'0 0.0
2014-Oct-30 01:31N 53°27' E 006°50'0 0.0
2014-Oct-30 00:31N 53°27' E 006°50'0 0.0
2014-Oct-29 23:31N 53°27' E 006°50'0 0.0
2014-Oct-29 22:33N 53°27' E 006°50'0 0.0
2014-Oct-29 21:30N 53°27' E 006°50'0 0.0
2014-Oct-29 20:33N 53°27' E 006°50'0 0.0
2014-Oct-29 19:33N 53°27' E 006°50'0 0.0
2014-Oct-29 18:33N 53°27' E 006°50'3 3.3
2014-Oct-29 17:33N 53°30' E 006°48'3 3.3
2014-Oct-29 16:33N 53°27' E 006°50'0 0.0
2014-Oct-29 15:31N 53°27' E 006°50'4 4.0
2014-Oct-29 14:31N 53°29' E 006°44'4 4.0
2014-Oct-29 13:33N 53°27' E 006°50'1 0.9
2014-Oct-29 12:31N 53°27' E 006°50'3 1.0
2014-Oct-29 09:33N 53°29' E 006°46'3 2.8
2014-Oct-29 08:32N 53°27' E 006°50'0 0.0
2014-Oct-29 07:32N 53°27' E 006°50'0 0.0
2014-Oct-29 06:33N 53°27' E 006°50'7 5.9
2014-Oct-29 05:17N 53°34' E 006°45'7 9.4
2014-Oct-29 04:30N 53°27' E 006°50'0 0.0
2014-Oct-29 03:33N 53°27' E 006°50'0 0.0
2014-Oct-29 02:33N 53°27' E 006°50'0 0.0
2014-Oct-29 01:33N 53°27' E 006°50'7 0.9
2014-Oct-28 17:17N 53°34' E 006°45'710.2
2014-Oct-28 16:33N 53°27' E 006°50'0 0.0
2014-Oct-28 15:33N 53°27' E 006°50'0 0.0
2014-Oct-28 14:33N 53°27' E 006°50'0 0.0
2014-Oct-28 12:32N 53°27' E 006°50'0 0.0
2014-Oct-28 11:32N 53°27' E 006°50'0 0.0
2014-Oct-28 10:32N 53°27' E 006°50'0 0.0
2014-Oct-28 09:26N 53°27' E 006°50'0 0.0
2014-Oct-28 08:32N 53°27' E 006°50'0 0.0
2014-Oct-28 07:32N 53°27' E 006°50'0 0.0
2014-Oct-28 06:32N 53°27' E 006°50'0 0.0
2014-Oct-28 05:32N 53°27' E 006°50'0 0.0
2014-Oct-28 04:32N 53°27' E 006°50'0 0.0
2014-Oct-28 03:32N 53°27' E 006°50'0 0.0
2014-Oct-28 02:32N 53°27' E 006°50'0 0.0
2014-Oct-28 01:29N 53°27' E 006°50'0 0.0
2014-Oct-28 00:32N 53°27' E 006°50'0 0.0
2014-Oct-27 23:32N 53°27' E 006°50'0 0.0
2014-Oct-27 22:29N 53°27' E 006°50'0 0.0
2014-Oct-27 21:32N 53°27' E 006°50'0 0.0
2014-Oct-27 20:31N 53°27' E 006°50'0 0.0
2014-Oct-27 19:28N 53°27' E 006°50'0 0.0
2014-Oct-27 18:31N 53°27' E 006°50'0 0.0
2014-Oct-27 17:31N 53°27' E 006°50'0 0.0
2014-Oct-27 16:31N 53°27' E 006°50'0 0.0
2014-Oct-27 15:31N 53°27' E 006°50'0 0.0
2014-Oct-27 14:31N 53°27' E 006°50'0 0.0
2014-Oct-27 13:31N 53°27' E 006°50'8 7.1
2014-Oct-27 12:27N 53°32' E 006°40'8 8.2
2014-Oct-27 11:31N 53°27' E 006°50'0 0.0
2014-Oct-27 10:28N 53°27' E 006°50'0 0.0
2014-Oct-27 09:31N 53°27' E 006°50'0 0.0
2014-Oct-27 08:28N 53°27' E 006°50'0 0.0
2014-Oct-27 07:31N 53°27' E 006°50'9 7.3
2014-Oct-27 06:20N 53°33' E 006°40'910.5
2014-Oct-27 05:31N 53°27' E 006°50'0 0.0
2014-Oct-27 04:31N 53°27' E 006°50'0 0.0
2014-Oct-27 03:31N 53°27' E 006°50'0 0.0
2014-Oct-27 02:31N 53°27' E 006°50'0 0.0
2014-Oct-27 01:28N 53°27' E 006°50'0 0.0
2014-Oct-27 00:31N 53°27' E 006°50'0 0.0
2014-Oct-26 23:28N 53°27' E 006°50'0 0.0
2014-Oct-26 22:31N 53°27' E 006°50'0 0.0
2014-Oct-26 21:31N 53°27' E 006°50'0 0.0
2014-Oct-26 20:28N 53°27' E 006°50'0 0.0
2014-Oct-26 19:31N 53°27' E 006°50'0 0.0
2014-Oct-26 18:31N 53°27' E 006°50'0 0.0
2014-Oct-26 17:31N 53°27' E 006°50'0 0.0
2014-Oct-26 16:31N 53°27' E 006°50'0 0.0
2014-Oct-26 15:31N 53°27' E 006°50'0 0.0
2014-Oct-26 14:31N 53°27' E 006°50'0 0.2
2014-Oct-26 13:33N 53°27' E 006°50'9 4.3
2014-Oct-26 11:30N 53°32' E 006°38'0 0.0
2014-Oct-26 10:33N 53°32' E 006°38'1 0.9
2014-Oct-26 09:16N 53°32' E 006°40'7 9.5
2014-Oct-26 08:33N 53°28' E 006°49'1 1.4
2014-Oct-26 07:32N 53°27' E 006°50'0 0.0
2014-Oct-26 06:32N 53°27' E 006°50'0 0.0
2014-Oct-26 05:29N 53°27' E 006°50'0 0.0
2014-Oct-26 04:32N 53°27' E 006°50'0 0.0
2014-Oct-26 03:32N 53°27' E 006°50'0 0.0
2014-Oct-26 02:32N 53°27' E 006°50'0 0.0
2014-Oct-26 01:32N 53°27' E 006°50'0 0.0
2014-Oct-26 00:32N 53°27' E 006°50'0 0.0
2014-Oct-25 23:32N 53°27' E 006°50'0 0.0
2014-Oct-25 22:32N 53°27' E 006°50'0 0.0
2014-Oct-25 21:32N 53°27' E 006°50'0 0.0
2014-Oct-25 20:32N 53°27' E 006°50'0 0.0
2014-Oct-25 19:32N 53°27' E 006°50'0 0.0
2014-Oct-25 18:32N 53°27' E 006°50'0 0.0
2014-Oct-25 17:32N 53°27' E 006°50'2 1.5
2014-Oct-25 16:32N 53°28' E 006°50'3 3.4
2014-Oct-25 15:33N 53°31' E 006°47'5 4.5
2014-Oct-25 14:32N 53°27' E 006°50'0 0.0
2014-Oct-25 13:32N 53°27' E 006°50'0 0.0
2014-Oct-25 12:32N 53°27' E 006°50'0 0.1
2014-Oct-25 11:31N 53°27' E 006°49'1 1.3
2014-Oct-25 10:33N 53°28' E 006°49'7 6.7
2014-Oct-25 09:33N 53°32' E 006°40'8 7.5
2014-Oct-25 08:32N 53°27' E 006°50'0 0.0
2014-Oct-25 07:32N 53°27' E 006°50'0 0.0
2014-Oct-25 06:32N 53°27' E 006°50'0 0.0
2014-Oct-25 05:32N 53°27' E 006°50'0 0.0
2014-Oct-25 04:32N 53°27' E 006°50'0 0.0
2014-Oct-25 03:32N 53°27' E 006°50'0 0.0
2014-Oct-25 02:32N 53°27' E 006°50'0 0.0
2014-Oct-25 01:32N 53°27' E 006°50'0 0.0
2014-Oct-25 00:32N 53°27' E 006°50'0 0.0
2014-Oct-24 23:23N 53°27' E 006°50'0 0.0
2014-Oct-24 22:28N 53°27' E 006°50'0 0.0
2014-Oct-24 21:19N 53°27' E 006°50'0 0.0
2014-Oct-24 20:31N 53°27' E 006°50'0 0.0
2014-Oct-24 19:31N 53°27' E 006°50'0 0.0
2014-Oct-24 18:31N 53°27' E 006°50'0 0.0
2014-Oct-24 17:31N 53°27' E 006°50'0 0.0
2014-Oct-24 16:31N 53°27' E 006°50'0 0.0
2014-Oct-24 15:31N 53°27' E 006°50'8 6.9
2014-Oct-24 14:19N 53°33' E 006°40'810.7
2014-Oct-24 13:33N 53°27' E 006°50'0 0.0
2014-Oct-24 12:33N 53°27' E 006°50'0 0.1
2014-Oct-24 11:33N 53°27' E 006°49'9 2.0
2014-Oct-24 07:14N 53°33' E 006°39'912.6
2014-Oct-24 06:33N 53°27' E 006°50'0 0.5
2014-Oct-24 05:31N 53°27' E 006°50'0 0.0
2014-Oct-24 04:31N 53°27' E 006°50'0 0.0
2014-Oct-24 03:31N 53°27' E 006°50'0 0.0
2014-Oct-24 02:31N 53°27' E 006°50'0 0.0
2014-Oct-24 01:31N 53°27' E 006°50'0 0.0
2014-Oct-24 00:31N 53°27' E 006°50'0 0.0
2014-Oct-23 23:31N 53°27' E 006°50'0 0.0
2014-Oct-23 22:31N 53°27' E 006°50'0 0.0
2014-Oct-23 21:28N 53°27' E 006°50'0 0.0
2014-Oct-23 20:28N 53°27' E 006°50'0 0.0
2014-Oct-23 19:25N 53°27' E 006°50'0 0.0
2014-Oct-23 18:31N 53°27' E 006°50'0 0.0
2014-Oct-23 17:31N 53°27' E 006°50'0 0.0
2014-Oct-23 16:31N 53°27' E 006°50'4 2.0
2014-Oct-23 14:33N 53°29' E 006°44'4 3.9
2014-Oct-23 13:33N 53°27' E 006°50'0 0.0
2014-Oct-23 12:33N 53°27' E 006°50'0 0.0
2014-Oct-23 11:33N 53°27' E 006°50'0 0.0
2014-Oct-23 10:33N 53°27' E 006°50'0 0.0
2014-Oct-23 09:33N 53°27' E 006°50'0 0.0
2014-Oct-23 08:33N 53°27' E 006°50'0 0.0
2014-Oct-23 07:33N 53°27' E 006°50'0 0.0
2014-Oct-23 05:33N 53°27' E 006°50'0 0.1
2014-Oct-23 04:31N 53°27' E 006°50'0 0.0
2014-Oct-23 03:28N 53°27' E 006°50'0 0.0
2014-Oct-23 02:31N 53°27' E 006°50'0 0.0
2014-Oct-23 01:31N 53°27' E 006°50'0 0.0
2014-Oct-23 00:31N 53°27' E 006°50'0 0.0
2014-Oct-22 23:31N 53°27' E 006°50'0 0.0
2014-Oct-22 22:31N 53°27' E 006°50'0 0.0
2014-Oct-22 21:32N 53°27' E 006°50'0 0.0
2014-Oct-22 20:32N 53°27' E 006°50'0 0.0
2014-Oct-22 19:32N 53°27' E 006°50'0 0.0
2014-Oct-22 18:32N 53°27' E 006°50'0 0.0
2014-Oct-22 17:32N 53°27' E 006°50'0 0.0
2014-Oct-22 16:32N 53°27' E 006°50'9 7.5
2014-Oct-22 15:21N 53°33' E 006°39'810.2
2014-Oct-22 14:32N 53°28' E 006°50'1 1.1
2014-Oct-22 13:31N 53°27' E 006°50'0 0.0
2014-Oct-22 12:22N 53°27' E 006°50'0 0.0
2014-Oct-22 11:28N 53°27' E 006°50'0 0.0
2014-Oct-22 10:25N 53°27' E 006°50'5 2.8
2014-Oct-22 08:31N 53°30' E 006°42'5 4.5
2014-Oct-22 07:23N 53°27' E 006°49'7 0.6
2014-Oct-21 18:25N 53°34' E 006°45'6 2.1
2014-Oct-21 15:33N 53°28' E 006°49'2 1.5
2014-Oct-21 14:33N 53°27' E 006°50'0 0.0
2014-Oct-21 13:33N 53°27' E 006°50'0 0.0
2014-Oct-21 12:33N 53°27' E 006°50'  

Dump ship's entire track history